Time;durP1;ratioP1;P1;durP2;ratioP2;P2;SDS_P1;SDS_P2;PMS_P1;PMS_P2;Temp;Humidity;BMP_temperature;BMP_pressure;BME280_temperature;BME280_humidity;BME280_pressure;Samples;Min_cycle;Max_cycle;Signal;HPM_P1;HPM_P2
2022/05/05 00:00:00;;;;;;;8.4;4.8;;;;;;;14.2;100.0;101700;;;;
2022/05/05 00:01:00;;;;;;;8.4;4.8;;;;;;;14.2;100.0;101700;;;;
2022/05/05 00:02:00;;;;;;;8.4;4.8;;;;;;;14.1;100.0;101710;;;;
2022/05/05 00:03:00;;;;;;;8.4;4.8;;;;;;;14.1;100.0;101710;;;;
2022/05/05 00:04:00;;;;;;;8.4;4.8;;;;;;;14.1;100.0;101700;;;;
2022/05/05 00:05:00;;;;;;;8.4;4.8;;;;;;;14.1;100.0;101700;;;;
2022/05/05 00:06:00;;;;;;;8.4;4.8;;;;;;;14.1;100.0;101700;;;;
2022/05/05 00:07:02;;;;;;;8.4;4.8;;;;;;;14.1;100.0;101700;;;;
2022/05/05 00:08:00;;;;;;;8.4;4.8;;;;;;;14.1;100.0;101700;;;;
2022/05/05 00:09:00;;;;;;;8.4;4.8;;;;;;;14.1;100.0;101700;;;;
2022/05/05 00:14:23;;;;;;;8.4;4.8;;;;;;;14.1;100.0;101700;;;;
2022/05/05 00:15:00;;;;;;;8.4;4.8;;;;;;;14.0;100.0;101700;;;;
2022/05/05 00:16:00;;;;;;;8.4;4.8;;;;;;;14.0;100.0;101700;;;;
2022/05/05 00:17:01;;;;;;;8.4;4.8;;;;;;;14.0;100.0;101700;;;;
2022/05/05 00:18:00;;;;;;;8.4;4.8;;;;;;;13.9;100.0;101700;;;;
2022/05/05 00:19:01;;;;;;;8.4;4.8;;;;;;;13.9;100.0;101700;;;;
2022/05/05 00:20:00;;;;;;;9.2;5.1;;;;;;;14.0;100.0;101700;;;;
2022/05/05 00:21:00;;;;;;;9.2;5.1;;;;;;;14.0;100.0;101700;;;;
2022/05/05 00:22:00;;;;;;;9.2;5.1;;;;;;;13.9;100.0;101700;;;;
2022/05/05 00:23:00;;;;;;;9.2;5.1;;;;;;;13.9;100.0;101700;;;;
2022/05/05 00:24:00;;;;;;;9.2;5.1;;;;;;;13.9;100.0;101700;;;;
2022/05/05 00:25:00;;;;;;;9.2;5.1;;;;;;;13.9;100.0;101700;;;;
2022/05/05 00:26:00;;;;;;;9.2;5.1;;;;;;;13.9;100.0;101700;;;;
2022/05/05 00:27:00;;;;;;;9.2;5.1;;;;;;;13.9;100.0;101700;;;;
2022/05/05 00:28:00;;;;;;;9.2;5.1;;;;;;;13.8;100.0;101700;;;;
2022/05/05 00:29:00;;;;;;;9.2;5.1;;;;;;;13.8;100.0;101700;;;;
2022/05/05 00:30:00;;;;;;;9.2;5.1;;;;;;;13.8;100.0;101700;;;;
2022/05/05 00:31:00;;;;;;;9.2;5.1;;;;;;;13.8;100.0;101700;;;;
2022/05/05 00:32:00;;;;;;;9.2;5.1;;;;;;;13.8;100.0;101700;;;;
2022/05/05 00:33:00;;;;;;;9.2;5.1;;;;;;;13.8;100.0;101700;;;;
2022/05/05 00:34:00;;;;;;;9.2;5.1;;;;;;;13.9;100.0;101700;;;;
2022/05/05 00:35:00;;;;;;;9.2;5.1;;;;;;;13.9;100.0;101700;;;;
2022/05/05 00:36:00;;;;;;;9.2;5.1;;;;;;;13.8;100.0;101700;;;;
2022/05/05 00:37:00;;;;;;;9.2;5.1;;;;;;;13.8;100.0;101700;;;;
2022/05/05 00:38:00;;;;;;;9.2;5.1;;;;;;;13.8;100.0;101700;;;;
2022/05/05 00:39:00;;;;;;;9.2;5.1;;;;;;;13.8;100.0;101700;;;;
2022/05/05 00:40:00;;;;;;;10.2;5.2;;;;;;;13.8;100.0;101700;;;;
2022/05/05 00:41:00;;;;;;;10.2;5.2;;;;;;;13.8;100.0;101700;;;;
2022/05/05 00:42:00;;;;;;;10.2;5.2;;;;;;;13.8;100.0;101700;;;;
2022/05/05 00:43:00;;;;;;;10.2;5.2;;;;;;;13.8;100.0;101700;;;;
2022/05/05 00:44:01;;;;;;;10.2;5.2;;;;;;;13.8;100.0;101700;;;;
2022/05/05 00:45:00;;;;;;;10.2;5.2;;;;;;;13.8;100.0;101700;;;;
2022/05/05 00:46:00;;;;;;;10.2;5.2;;;;;;;13.8;100.0;101700;;;;
2022/05/05 00:47:00;;;;;;;10.2;5.2;;;;;;;13.8;100.0;101700;;;;
2022/05/05 00:48:08;;;;;;;10.2;5.2;;;;;;;13.8;100.0;101700;;;;
2022/05/05 00:49:00;;;;;;;10.2;5.2;;;;;;;13.8;100.0;101700;;;;
2022/05/05 00:50:00;;;;;;;10.2;5.2;;;;;;;13.8;100.0;101700;;;;
2022/05/05 00:51:00;;;;;;;10.2;5.2;;;;;;;13.8;100.0;101700;;;;
2022/05/05 00:52:00;;;;;;;10.2;5.2;;;;;;;13.9;100.0;101700;;;;
2022/05/05 00:53:01;;;;;;;10.2;5.2;;;;;;;13.9;100.0;101700;;;;
2022/05/05 00:54:00;;;;;;;10.2;5.2;;;;;;;13.8;100.0;101700;;;;
2022/05/05 00:55:00;;;;;;;10.2;5.2;;;;;;;13.8;100.0;101700;;;;
2022/05/05 00:56:03;;;;;;;10.2;5.2;;;;;;;13.8;100.0;101700;;;;
2022/05/05 00:57:00;;;;;;;10.2;5.2;;;;;;;13.8;100.0;101700;;;;
2022/05/05 00:58:01;;;;;;;10.2;5.2;;;;;;;13.8;100.0;101700;;;;
2022/05/05 00:59:05;;;;;;;8.7;4.8;;;;;;;13.8;100.0;101700;;;;
2022/05/05 01:00:01;;;;;;;8.7;4.8;;;;;;;13.9;100.0;101690;;;;
2022/05/05 01:01:04;;;;;;;8.7;4.8;;;;;;;13.9;100.0;101690;;;;
2022/05/05 01:02:01;;;;;;;8.7;4.8;;;;;;;13.9;100.0;101690;;;;
2022/05/05 01:03:00;;;;;;;8.7;4.8;;;;;;;13.9;100.0;101690;;;;
2022/05/05 01:04:00;;;;;;;8.7;4.8;;;;;;;13.9;100.0;101690;;;;
2022/05/05 01:05:00;;;;;;;8.7;4.8;;;;;;;13.9;100.0;101690;;;;
2022/05/05 01:06:01;;;;;;;8.7;4.8;;;;;;;13.8;100.0;101690;;;;
2022/05/05 01:07:00;;;;;;;8.7;4.8;;;;;;;13.8;100.0;101690;;;;
2022/05/05 01:08:02;;;;;;;8.7;4.8;;;;;;;13.8;100.0;101690;;;;
2022/05/05 01:09:00;;;;;;;8.7;4.8;;;;;;;13.8;100.0;101690;;;;
2022/05/05 01:10:00;;;;;;;8.7;4.8;;;;;;;13.9;100.0;101690;;;;
2022/05/05 01:11:00;;;;;;;8.7;4.8;;;;;;;13.9;100.0;101690;;;;
2022/05/05 01:12:00;;;;;;;8.7;4.8;;;;;;;13.8;100.0;101690;;;;
2022/05/05 01:13:01;;;;;;;8.7;4.8;;;;;;;13.8;100.0;101690;;;;
2022/05/05 01:14:00;;;;;;;8.7;4.8;;;;;;;13.8;100.0;101690;;;;
2022/05/05 01:15:00;;;;;;;8.7;4.8;;;;;;;13.8;100.0;101690;;;;
2022/05/05 01:16:00;;;;;;;8.7;4.8;;;;;;;13.8;100.0;101690;;;;
2022/05/05 01:17:00;;;;;;;8.7;4.8;;;;;;;13.8;100.0;101690;;;;
2022/05/05 01:18:00;;;;;;;8.7;4.8;;;;;;;13.7;100.0;101690;;;;
2022/05/05 01:19:00;;;;;;;9.2;5.2;;;;;;;13.7;100.0;101690;;;;
2022/05/05 01:20:10;;;;;;;9.2;5.2;;;;;;;13.8;100.0;101690;;;;
2022/05/05 01:21:00;;;;;;;9.2;5.2;;;;;;;13.8;100.0;101690;;;;
2022/05/05 01:22:00;;;;;;;9.2;5.2;;;;;;;13.7;100.0;101690;;;;
2022/05/05 01:23:00;;;;;;;9.2;5.2;;;;;;;13.7;100.0;101690;;;;
2022/05/05 01:24:00;;;;;;;9.2;5.2;;;;;;;13.6;100.0;101690;;;;
2022/05/05 01:29:01;;;;;;;9.2;5.2;;;;;;;13.5;100.0;101700;;;;
2022/05/05 01:30:00;;;;;;;9.2;5.2;;;;;;;13.4;100.0;101700;;;;
2022/05/05 01:31:00;;;;;;;9.2;5.2;;;;;;;13.4;100.0;101700;;;;
2022/05/05 01:32:00;;;;;;;9.2;5.2;;;;;;;13.4;100.0;101700;;;;
2022/05/05 01:33:00;;;;;;;9.2;5.2;;;;;;;13.4;100.0;101700;;;;
2022/05/05 01:34:00;;;;;;;9.2;5.2;;;;;;;13.4;100.0;101700;;;;
2022/05/05 01:35:00;;;;;;;9.2;5.2;;;;;;;13.4;100.0;101700;;;;
2022/05/05 01:36:00;;;;;;;9.2;5.2;;;;;;;13.4;100.0;101700;;;;
2022/05/05 01:37:00;;;;;;;9.2;5.2;;;;;;;13.4;100.0;101700;;;;
2022/05/05 01:38:00;;;;;;;9.2;5.2;;;;;;;13.4;100.0;101700;;;;
2022/05/05 01:39:00;;;;;;;8.9;5.1;;;;;;;13.4;100.0;101700;;;;
2022/05/05 01:40:00;;;;;;;8.9;5.1;;;;;;;13.4;100.0;101690;;;;
2022/05/05 01:41:00;;;;;;;8.9;5.1;;;;;;;13.4;100.0;101690;;;;
2022/05/05 01:42:00;;;;;;;8.9;5.1;;;;;;;13.3;100.0;101690;;;;
2022/05/05 01:43:00;;;;;;;8.9;5.1;;;;;;;13.3;100.0;101690;;;;
2022/05/05 01:44:00;;;;;;;8.9;5.1;;;;;;;13.3;100.0;101690;;;;
2022/05/05 01:45:00;;;;;;;8.9;5.1;;;;;;;13.3;100.0;101690;;;;
2022/05/05 01:46:00;;;;;;;8.9;5.1;;;;;;;13.2;100.0;101700;;;;
2022/05/05 01:47:00;;;;;;;8.9;5.1;;;;;;;13.2;100.0;101700;;;;
2022/05/05 01:48:00;;;;;;;8.9;5.1;;;;;;;13.2;100.0;101700;;;;
2022/05/05 01:49:00;;;;;;;8.9;5.1;;;;;;;13.2;100.0;101700;;;;
2022/05/05 01:50:00;;;;;;;8.9;5.1;;;;;;;13.1;100.0;101700;;;;
2022/05/05 01:51:00;;;;;;;8.9;5.1;;;;;;;13.1;100.0;101700;;;;
2022/05/05 01:52:00;;;;;;;8.9;5.1;;;;;;;13.0;100.0;101700;;;;
2022/05/05 01:53:00;;;;;;;8.9;5.1;;;;;;;13.0;100.0;101700;;;;
2022/05/05 01:54:00;;;;;;;8.9;5.1;;;;;;;13.0;100.0;101700;;;;
2022/05/05 01:55:00;;;;;;;8.9;5.1;;;;;;;13.0;100.0;101700;;;;
2022/05/05 01:56:00;;;;;;;8.9;5.1;;;;;;;13.0;100.0;101700;;;;
2022/05/05 01:57:00;;;;;;;8.9;5.1;;;;;;;13.0;100.0;101700;;;;
2022/05/05 01:58:01;;;;;;;8.9;5.1;;;;;;;13.0;100.0;101700;;;;
2022/05/05 01:59:00;;;;;;;9.4;5.8;;;;;;;13.0;100.0;101700;;;;
2022/05/05 02:00:02;;;;;;;9.4;5.8;;;;;;;13.0;100.0;101700;;;;
2022/05/05 02:01:00;;;;;;;9.4;5.8;;;;;;;13.0;100.0;101700;;;;
2022/05/05 02:02:00;;;;;;;9.4;5.8;;;;;;;12.9;100.0;101700;;;;
2022/05/05 02:03:01;;;;;;;9.4;5.8;;;;;;;12.9;100.0;101700;;;;
2022/05/05 02:04:00;;;;;;;9.4;5.8;;;;;;;12.8;100.0;101700;;;;
2022/05/05 02:05:00;;;;;;;9.4;5.8;;;;;;;12.8;100.0;101700;;;;
2022/05/05 02:06:00;;;;;;;9.4;5.8;;;;;;;12.8;100.0;101700;;;;
2022/05/05 02:07:00;;;;;;;9.4;5.8;;;;;;;12.8;100.0;101700;;;;
2022/05/05 02:08:00;;;;;;;9.4;5.8;;;;;;;12.7;100.0;101700;;;;
2022/05/05 02:09:00;;;;;;;9.4;5.8;;;;;;;12.7;100.0;101700;;;;
2022/05/05 02:10:02;;;;;;;9.4;5.8;;;;;;;12.7;100.0;101700;;;;
2022/05/05 02:11:00;;;;;;;9.4;5.8;;;;;;;12.7;100.0;101700;;;;
2022/05/05 02:12:00;;;;;;;9.4;5.8;;;;;;;12.6;100.0;101700;;;;
2022/05/05 02:13:00;;;;;;;9.4;5.8;;;;;;;12.6;100.0;101700;;;;
2022/05/05 02:14:00;;;;;;;9.4;5.8;;;;;;;12.6;100.0;101700;;;;
2022/05/05 02:15:00;;;;;;;9.4;5.8;;;;;;;12.6;100.0;101700;;;;
2022/05/05 02:16:00;;;;;;;9.4;5.8;;;;;;;12.5;100.0;101710;;;;
2022/05/05 02:17:00;;;;;;;9.4;5.8;;;;;;;12.5;100.0;101710;;;;
2022/05/05 02:18:10;;;;;;;9.4;5.8;;;;;;;12.5;100.0;101710;;;;
2022/05/05 02:19:00;;;;;;;7.4;5.5;;;;;;;12.5;100.0;101710;;;;
2022/05/05 02:20:00;;;;;;;7.4;5.5;;;;;;;12.5;100.0;101710;;;;
2022/05/05 02:21:00;;;;;;;7.4;5.5;;;;;;;12.5;100.0;101710;;;;
2022/05/05 02:22:02;;;;;;;7.4;5.5;;;;;;;12.4;100.0;101710;;;;
2022/05/05 02:23:00;;;;;;;7.4;5.5;;;;;;;12.4;100.0;101710;;;;
2022/05/05 02:24:00;;;;;;;7.4;5.5;;;;;;;12.4;100.0;101710;;;;
2022/05/05 02:25:00;;;;;;;7.4;5.5;;;;;;;12.4;100.0;101710;;;;
2022/05/05 02:26:00;;;;;;;7.4;5.5;;;;;;;12.3;100.0;101710;;;;
2022/05/05 02:27:00;;;;;;;7.4;5.5;;;;;;;12.3;100.0;101710;;;;
2022/05/05 02:28:00;;;;;;;7.4;5.5;;;;;;;12.3;100.0;101710;;;;
2022/05/05 02:29:00;;;;;;;7.4;5.5;;;;;;;12.3;100.0;101710;;;;
2022/05/05 02:30:00;;;;;;;7.4;5.5;;;;;;;12.2;100.0;101710;;;;
2022/05/05 02:31:00;;;;;;;7.4;5.5;;;;;;;12.2;100.0;101710;;;;
2022/05/05 02:32:02;;;;;;;7.4;5.5;;;;;;;12.2;100.0;101710;;;;
2022/05/05 02:33:00;;;;;;;7.4;5.5;;;;;;;12.2;100.0;101710;;;;
2022/05/05 02:34:00;;;;;;;7.4;5.5;;;;;;;12.1;100.0;101710;;;;
2022/05/05 02:35:00;;;;;;;7.4;5.5;;;;;;;12.1;100.0;101710;;;;
2022/05/05 02:39:00;;;;;;;9.0;5.9;;;;;;;12.0;100.0;101720;;;;
2022/05/05 02:40:00;;;;;;;9.0;5.9;;;;;;;12.1;100.0;101720;;;;
2022/05/05 02:41:01;;;;;;;9.0;5.9;;;;;;;12.1;100.0;101720;;;;
2022/05/05 02:42:00;;;;;;;9.0;5.9;;;;;;;12.1;100.0;101720;;;;
2022/05/05 02:43:00;;;;;;;9.0;5.9;;;;;;;12.1;100.0;101720;;;;
2022/05/05 02:44:00;;;;;;;9.0;5.9;;;;;;;12.0;100.0;101720;;;;
2022/05/05 02:45:00;;;;;;;9.0;5.9;;;;;;;12.0;100.0;101720;;;;
2022/05/05 02:46:00;;;;;;;9.0;5.9;;;;;;;11.9;100.0;101720;;;;
2022/05/05 02:47:00;;;;;;;9.0;5.9;;;;;;;11.9;100.0;101720;;;;
2022/05/05 02:48:00;;;;;;;9.0;5.9;;;;;;;11.9;100.0;101720;;;;
2022/05/05 02:49:00;;;;;;;9.0;5.9;;;;;;;11.9;100.0;101720;;;;
2022/05/05 02:50:00;;;;;;;9.0;5.9;;;;;;;11.8;100.0;101720;;;;
2022/05/05 02:51:00;;;;;;;9.0;5.9;;;;;;;11.8;100.0;101720;;;;
2022/05/05 02:52:00;;;;;;;9.0;5.9;;;;;;;11.8;100.0;101720;;;;
2022/05/05 02:53:00;;;;;;;9.0;5.9;;;;;;;11.8;100.0;101720;;;;
2022/05/05 02:55:01;;;;;;;9.0;5.9;;;;;;;11.8;100.0;101720;;;;
2022/05/05 02:56:00;;;;;;;9.0;5.9;;;;;;;11.7;100.0;101720;;;;
2022/05/05 02:57:00;;;;;;;9.0;5.9;;;;;;;11.7;100.0;101720;;;;
2022/05/05 02:58:00;;;;;;;9.0;5.9;;;;;;;11.7;100.0;101720;;;;
2022/05/05 02:59:00;;;;;;;8.2;5.4;;;;;;;11.7;100.0;101720;;;;
2022/05/05 03:00:00;;;;;;;8.2;5.4;;;;;;;11.7;100.0;101720;;;;
2022/05/05 03:01:00;;;;;;;8.2;5.4;;;;;;;11.7;100.0;101720;;;;
2022/05/05 03:02:00;;;;;;;8.2;5.4;;;;;;;11.6;100.0;101720;;;;
2022/05/05 03:03:00;;;;;;;8.2;5.4;;;;;;;11.6;100.0;101720;;;;
2022/05/05 03:04:00;;;;;;;8.2;5.4;;;;;;;11.6;100.0;101720;;;;
2022/05/05 03:05:00;;;;;;;8.2;5.4;;;;;;;11.6;100.0;101720;;;;
2022/05/05 03:06:00;;;;;;;8.2;5.4;;;;;;;11.6;100.0;101720;;;;
2022/05/05 03:07:00;;;;;;;8.2;5.4;;;;;;;11.6;100.0;101720;;;;
2022/05/05 03:08:00;;;;;;;8.2;5.4;;;;;;;11.5;100.0;101720;;;;
2022/05/05 03:09:00;;;;;;;8.2;5.4;;;;;;;11.5;100.0;101720;;;;
2022/05/05 03:10:00;;;;;;;8.2;5.4;;;;;;;11.5;100.0;101720;;;;
2022/05/05 03:11:00;;;;;;;8.2;5.4;;;;;;;11.5;100.0;101720;;;;
2022/05/05 03:12:00;;;;;;;8.2;5.4;;;;;;;11.5;100.0;101720;;;;
2022/05/05 03:13:00;;;;;;;8.2;5.4;;;;;;;11.5;100.0;101720;;;;
2022/05/05 03:14:00;;;;;;;8.2;5.4;;;;;;;11.5;100.0;101720;;;;
2022/05/05 03:15:00;;;;;;;8.2;5.4;;;;;;;11.5;100.0;101720;;;;
2022/05/05 03:16:00;;;;;;;8.2;5.4;;;;;;;11.6;100.0;101720;;;;
2022/05/05 03:17:00;;;;;;;8.2;5.4;;;;;;;11.6;100.0;101720;;;;
2022/05/05 03:18:00;;;;;;;8.2;5.4;;;;;;;11.6;100.0;101720;;;;
2022/05/05 03:19:00;;;;;;;9.2;5.8;;;;;;;11.6;100.0;101720;;;;
2022/05/05 03:20:00;;;;;;;9.2;5.8;;;;;;;11.6;100.0;101720;;;;
2022/05/05 03:21:00;;;;;;;9.2;5.8;;;;;;;11.6;100.0;101720;;;;
2022/05/05 03:22:00;;;;;;;9.2;5.8;;;;;;;11.5;100.0;101720;;;;
2022/05/05 03:23:00;;;;;;;9.2;5.8;;;;;;;11.5;100.0;101720;;;;
2022/05/05 03:24:00;;;;;;;9.2;5.8;;;;;;;11.5;100.0;101720;;;;
2022/05/05 03:25:00;;;;;;;9.2;5.8;;;;;;;11.5;100.0;101720;;;;
2022/05/05 03:26:00;;;;;;;9.2;5.8;;;;;;;11.5;100.0;101720;;;;
2022/05/05 03:27:01;;;;;;;9.2;5.8;;;;;;;11.5;100.0;101720;;;;
2022/05/05 03:28:00;;;;;;;9.2;5.8;;;;;;;11.5;100.0;101720;;;;
2022/05/05 03:29:00;;;;;;;9.2;5.8;;;;;;;11.5;100.0;101720;;;;
2022/05/05 03:30:00;;;;;;;9.2;5.8;;;;;;;11.5;100.0;101720;;;;
2022/05/05 03:31:00;;;;;;;9.2;5.8;;;;;;;11.5;100.0;101720;;;;
2022/05/05 03:32:00;;;;;;;9.2;5.8;;;;;;;11.5;100.0;101720;;;;
2022/05/05 03:33:00;;;;;;;9.2;5.8;;;;;;;11.5;100.0;101720;;;;
2022/05/05 03:34:00;;;;;;;9.2;5.8;;;;;;;11.5;100.0;101730;;;;
2022/05/05 03:35:00;;;;;;;9.2;5.8;;;;;;;11.5;100.0;101730;;;;
2022/05/05 03:36:00;;;;;;;9.2;5.8;;;;;;;11.4;100.0;101730;;;;
2022/05/05 03:37:00;;;;;;;9.2;5.8;;;;;;;11.4;100.0;101730;;;;
2022/05/05 03:38:00;;;;;;;9.2;5.8;;;;;;;11.4;100.0;101730;;;;
2022/05/05 03:39:00;;;;;;;12.4;6.7;;;;;;;11.4;100.0;101730;;;;
2022/05/05 03:40:00;;;;;;;12.4;6.7;;;;;;;11.5;100.0;101730;;;;
2022/05/05 03:41:00;;;;;;;12.4;6.7;;;;;;;11.5;100.0;101730;;;;
2022/05/05 03:42:00;;;;;;;12.4;6.7;;;;;;;11.4;100.0;101730;;;;
2022/05/05 03:43:00;;;;;;;12.4;6.7;;;;;;;11.4;100.0;101730;;;;
2022/05/05 03:44:00;;;;;;;12.4;6.7;;;;;;;11.3;100.0;101730;;;;
2022/05/05 03:45:00;;;;;;;12.4;6.7;;;;;;;11.3;100.0;101730;;;;
2022/05/05 03:46:00;;;;;;;12.4;6.7;;;;;;;11.4;100.0;101740;;;;
2022/05/05 03:47:00;;;;;;;12.4;6.7;;;;;;;11.4;100.0;101740;;;;
2022/05/05 03:48:00;;;;;;;12.4;6.7;;;;;;;11.3;100.0;101740;;;;
2022/05/05 03:49:00;;;;;;;12.4;6.7;;;;;;;11.3;100.0;101740;;;;
2022/05/05 03:50:00;;;;;;;12.4;6.7;;;;;;;11.3;100.0;101740;;;;
2022/05/05 03:51:00;;;;;;;12.4;6.7;;;;;;;11.3;100.0;101740;;;;
2022/05/05 03:52:00;;;;;;;12.4;6.7;;;;;;;11.3;100.0;101740;;;;
2022/05/05 03:53:00;;;;;;;12.4;6.7;;;;;;;11.3;100.0;101740;;;;
2022/05/05 03:54:00;;;;;;;12.4;6.7;;;;;;;11.1;100.0;101740;;;;
2022/05/05 03:55:00;;;;;;;12.4;6.7;;;;;;;11.1;100.0;101740;;;;
2022/05/05 03:56:00;;;;;;;12.4;6.7;;;;;;;11.2;100.0;101740;;;;
2022/05/05 03:57:00;;;;;;;12.4;6.7;;;;;;;11.2;100.0;101740;;;;
2022/05/05 03:58:00;;;;;;;12.4;6.7;;;;;;;11.1;100.0;101740;;;;
2022/05/05 03:59:00;;;;;;;8.2;6.3;;;;;;;11.1;100.0;101740;;;;
2022/05/05 04:00:00;;;;;;;8.2;6.3;;;;;;;10.9;100.0;101750;;;;
2022/05/05 04:01:00;;;;;;;8.2;6.3;;;;;;;10.9;100.0;101750;;;;
2022/05/05 04:02:00;;;;;;;8.2;6.3;;;;;;;11.0;100.0;101740;;;;
2022/05/05 04:04:00;;;;;;;8.2;6.3;;;;;;;11.1;100.0;101740;;;;
2022/05/05 04:05:00;;;;;;;8.2;6.3;;;;;;;11.1;100.0;101740;;;;
2022/05/05 04:06:02;;;;;;;8.2;6.3;;;;;;;11.0;100.0;101750;;;;
2022/05/05 04:07:00;;;;;;;8.2;6.3;;;;;;;11.0;100.0;101750;;;;
2022/05/05 04:08:01;;;;;;;8.2;6.3;;;;;;;11.0;100.0;101750;;;;
2022/05/05 04:09:03;;;;;;;8.2;6.3;;;;;;;11.0;100.0;101750;;;;
2022/05/05 04:10:00;;;;;;;8.2;6.3;;;;;;;11.1;100.0;101750;;;;
2022/05/05 04:11:00;;;;;;;8.2;6.3;;;;;;;11.1;100.0;101750;;;;
2022/05/05 04:12:00;;;;;;;8.2;6.3;;;;;;;11.1;100.0;101750;;;;
2022/05/05 04:13:00;;;;;;;8.2;6.3;;;;;;;11.1;100.0;101750;;;;
2022/05/05 04:14:00;;;;;;;8.2;6.3;;;;;;;11.0;100.0;101750;;;;
2022/05/05 04:15:00;;;;;;;8.2;6.3;;;;;;;11.0;100.0;101750;;;;
2022/05/05 04:16:00;;;;;;;8.2;6.3;;;;;;;10.9;100.0;101750;;;;
2022/05/05 04:17:00;;;;;;;8.2;6.3;;;;;;;10.9;100.0;101750;;;;
2022/05/05 04:18:00;;;;;;;8.2;6.3;;;;;;;11.0;100.0;101760;;;;
2022/05/05 04:19:03;;;;;;;12.4;6.5;;;;;;;11.0;100.0;101760;;;;
2022/05/05 04:20:00;;;;;;;12.4;6.5;;;;;;;10.8;100.0;101760;;;;
2022/05/05 04:21:00;;;;;;;12.4;6.5;;;;;;;10.8;100.0;101760;;;;
2022/05/05 04:22:00;;;;;;;12.4;6.5;;;;;;;10.7;100.0;101760;;;;
2022/05/05 04:23:00;;;;;;;12.4;6.5;;;;;;;10.7;100.0;101760;;;;
2022/05/05 04:24:00;;;;;;;12.4;6.5;;;;;;;10.4;100.0;101760;;;;
2022/05/05 04:25:00;;;;;;;12.4;6.5;;;;;;;10.4;100.0;101760;;;;
2022/05/05 04:26:00;;;;;;;12.4;6.5;;;;;;;10.4;100.0;101770;;;;
2022/05/05 04:27:01;;;;;;;12.4;6.5;;;;;;;10.4;100.0;101770;;;;
2022/05/05 04:28:00;;;;;;;12.4;6.5;;;;;;;10.5;100.0;101770;;;;
2022/05/05 04:29:00;;;;;;;12.4;6.5;;;;;;;10.5;100.0;101770;;;;
2022/05/05 04:30:00;;;;;;;12.4;6.5;;;;;;;10.5;100.0;101770;;;;
2022/05/05 04:31:00;;;;;;;12.4;6.5;;;;;;;10.5;100.0;101770;;;;
2022/05/05 04:32:00;;;;;;;12.4;6.5;;;;;;;10.4;100.0;101770;;;;
2022/05/05 04:33:00;;;;;;;12.4;6.5;;;;;;;10.4;100.0;101770;;;;
2022/05/05 04:34:00;;;;;;;12.4;6.5;;;;;;;10.4;100.0;101770;;;;
2022/05/05 04:35:00;;;;;;;12.4;6.5;;;;;;;10.4;100.0;101770;;;;
2022/05/05 04:36:00;;;;;;;12.4;6.5;;;;;;;10.4;100.0;101770;;;;
2022/05/05 04:37:00;;;;;;;12.4;6.5;;;;;;;10.4;100.0;101770;;;;
2022/05/05 04:38:00;;;;;;;12.4;6.5;;;;;;;10.3;100.0;101770;;;;
2022/05/05 04:39:00;;;;;;;10.0;6.7;;;;;;;10.3;100.0;101770;;;;
2022/05/05 04:40:00;;;;;;;10.0;6.7;;;;;;;10.5;100.0;101780;;;;
2022/05/05 04:41:00;;;;;;;10.0;6.7;;;;;;;10.5;100.0;101780;;;;
2022/05/05 04:42:00;;;;;;;10.0;6.7;;;;;;;10.6;100.0;101780;;;;
2022/05/05 04:43:00;;;;;;;10.0;6.7;;;;;;;10.6;100.0;101780;;;;
2022/05/05 04:44:00;;;;;;;10.0;6.7;;;;;;;10.7;100.0;101780;;;;
2022/05/05 04:45:00;;;;;;;10.0;6.7;;;;;;;10.7;100.0;101780;;;;
2022/05/05 04:46:00;;;;;;;10.0;6.7;;;;;;;10.8;100.0;101770;;;;
2022/05/05 04:47:01;;;;;;;10.0;6.7;;;;;;;10.8;100.0;101770;;;;
2022/05/05 04:48:00;;;;;;;10.0;6.7;;;;;;;10.8;100.0;101780;;;;
2022/05/05 04:49:00;;;;;;;10.0;6.7;;;;;;;10.8;100.0;101780;;;;
2022/05/05 04:50:00;;;;;;;10.0;6.7;;;;;;;10.8;100.0;101780;;;;
2022/05/05 04:51:00;;;;;;;10.0;6.7;;;;;;;10.8;100.0;101780;;;;
2022/05/05 04:52:00;;;;;;;10.0;6.7;;;;;;;10.8;100.0;101780;;;;
2022/05/05 04:53:00;;;;;;;10.0;6.7;;;;;;;10.8;100.0;101780;;;;
2022/05/05 04:54:00;;;;;;;10.0;6.7;;;;;;;10.7;100.0;101780;;;;
2022/05/05 04:55:00;;;;;;;10.0;6.7;;;;;;;10.7;100.0;101780;;;;
2022/05/05 04:56:00;;;;;;;10.0;6.7;;;;;;;10.8;100.0;101790;;;;
2022/05/05 04:57:00;;;;;;;10.0;6.7;;;;;;;10.8;100.0;101790;;;;
2022/05/05 04:58:00;;;;;;;10.0;6.7;;;;;;;10.8;100.0;101790;;;;
2022/05/05 04:59:00;;;;;;;13.3;7.5;;;;;;;10.8;100.0;101790;;;;
2022/05/05 05:00:00;;;;;;;13.3;7.5;;;;;;;10.7;100.0;101790;;;;
2022/05/05 05:01:00;;;;;;;13.3;7.5;;;;;;;10.7;100.0;101790;;;;
2022/05/05 05:02:02;;;;;;;13.3;7.5;;;;;;;10.8;100.0;101790;;;;
2022/05/05 05:03:00;;;;;;;13.3;7.5;;;;;;;10.8;100.0;101790;;;;
2022/05/05 05:04:02;;;;;;;13.3;7.5;;;;;;;10.9;100.0;101790;;;;
2022/05/05 05:05:00;;;;;;;13.3;7.5;;;;;;;10.9;100.0;101790;;;;
2022/05/05 05:06:01;;;;;;;13.3;7.5;;;;;;;10.9;100.0;101790;;;;
2022/05/05 05:07:00;;;;;;;13.3;7.5;;;;;;;10.9;100.0;101790;;;;
2022/05/05 05:08:00;;;;;;;13.3;7.5;;;;;;;10.8;100.0;101800;;;;
2022/05/05 05:09:00;;;;;;;13.3;7.5;;;;;;;10.8;100.0;101800;;;;
2022/05/05 05:10:00;;;;;;;13.3;7.5;;;;;;;10.9;100.0;101790;;;;
2022/05/05 05:11:00;;;;;;;13.3;7.5;;;;;;;10.9;100.0;101790;;;;
2022/05/05 05:12:00;;;;;;;13.3;7.5;;;;;;;10.9;100.0;101790;;;;
2022/05/05 05:13:00;;;;;;;13.3;7.5;;;;;;;10.9;100.0;101790;;;;
2022/05/05 05:14:00;;;;;;;13.3;7.5;;;;;;;10.9;100.0;101790;;;;
2022/05/05 05:15:00;;;;;;;13.3;7.5;;;;;;;10.9;100.0;101790;;;;
2022/05/05 05:16:00;;;;;;;13.3;7.5;;;;;;;11.0;100.0;101790;;;;
2022/05/05 05:17:00;;;;;;;13.3;7.5;;;;;;;11.0;100.0;101790;;;;
2022/05/05 05:18:00;;;;;;;13.3;7.5;;;;;;;10.9;100.0;101790;;;;
2022/05/05 05:19:00;;;;;;;18.7;8.4;;;;;;;10.9;100.0;101790;;;;
2022/05/05 05:20:00;;;;;;;18.7;8.4;;;;;;;11.0;100.0;101790;;;;
2022/05/05 05:21:00;;;;;;;18.7;8.4;;;;;;;11.0;100.0;101790;;;;
2022/05/05 05:22:00;;;;;;;18.7;8.4;;;;;;;11.0;100.0;101800;;;;
2022/05/05 05:23:00;;;;;;;18.7;8.4;;;;;;;11.0;100.0;101800;;;;
2022/05/05 05:24:00;;;;;;;18.7;8.4;;;;;;;11.1;100.0;101800;;;;
2022/05/05 05:25:00;;;;;;;18.7;8.4;;;;;;;11.1;100.0;101800;;;;
2022/05/05 05:26:00;;;;;;;18.7;8.4;;;;;;;11.1;100.0;101800;;;;
2022/05/05 05:27:00;;;;;;;18.7;8.4;;;;;;;11.1;100.0;101800;;;;
2022/05/05 05:28:11;;;;;;;18.7;8.4;;;;;;;11.1;100.0;101800;;;;
2022/05/05 05:29:00;;;;;;;18.7;8.4;;;;;;;11.1;100.0;101800;;;;
2022/05/05 05:30:00;;;;;;;18.7;8.4;;;;;;;11.1;100.0;101810;;;;
2022/05/05 05:31:00;;;;;;;18.7;8.4;;;;;;;11.1;100.0;101810;;;;
2022/05/05 05:32:00;;;;;;;18.7;8.4;;;;;;;11.2;100.0;101800;;;;
2022/05/05 05:33:00;;;;;;;18.7;8.4;;;;;;;11.2;100.0;101800;;;;
2022/05/05 05:34:00;;;;;;;18.7;8.4;;;;;;;11.2;100.0;101810;;;;
2022/05/05 05:35:00;;;;;;;18.7;8.4;;;;;;;11.2;100.0;101810;;;;
2022/05/05 05:36:00;;;;;;;18.7;8.4;;;;;;;11.1;100.0;101810;;;;
2022/05/05 05:37:00;;;;;;;18.7;8.4;;;;;;;11.1;100.0;101810;;;;
2022/05/05 05:38:00;;;;;;;18.7;8.4;;;;;;;11.2;100.0;101810;;;;
2022/05/05 05:39:00;;;;;;;14.3;8.7;;;;;;;11.2;100.0;101810;;;;
2022/05/05 05:40:00;;;;;;;14.3;8.7;;;;;;;11.1;100.0;101810;;;;
2022/05/05 05:41:00;;;;;;;14.3;8.7;;;;;;;11.1;100.0;101810;;;;
2022/05/05 05:42:00;;;;;;;14.3;8.7;;;;;;;11.2;100.0;101810;;;;
2022/05/05 05:43:00;;;;;;;14.3;8.7;;;;;;;11.2;100.0;101810;;;;
2022/05/05 05:44:01;;;;;;;14.3;8.7;;;;;;;11.3;100.0;101810;;;;
2022/05/05 05:45:00;;;;;;;14.3;8.7;;;;;;;11.3;100.0;101810;;;;
2022/05/05 05:46:00;;;;;;;14.3;8.7;;;;;;;11.3;100.0;101820;;;;
2022/05/05 05:47:00;;;;;;;14.3;8.7;;;;;;;11.3;100.0;101820;;;;
2022/05/05 05:48:00;;;;;;;14.3;8.7;;;;;;;11.4;100.0;101820;;;;
2022/05/05 05:49:05;;;;;;;14.3;8.7;;;;;;;11.4;100.0;101820;;;;
2022/05/05 05:50:00;;;;;;;14.3;8.7;;;;;;;11.4;100.0;101820;;;;
2022/05/05 05:51:00;;;;;;;14.3;8.7;;;;;;;11.4;100.0;101820;;;;
2022/05/05 05:52:00;;;;;;;14.3;8.7;;;;;;;11.3;100.0;101820;;;;
2022/05/05 05:53:00;;;;;;;14.3;8.7;;;;;;;11.3;100.0;101820;;;;
2022/05/05 05:54:00;;;;;;;14.3;8.7;;;;;;;11.4;100.0;101820;;;;
2022/05/05 05:55:00;;;;;;;14.3;8.7;;;;;;;11.4;100.0;101820;;;;
2022/05/05 05:56:00;;;;;;;14.3;8.7;;;;;;;11.4;100.0;101820;;;;
2022/05/05 05:57:00;;;;;;;14.3;8.7;;;;;;;11.4;100.0;101820;;;;
2022/05/05 05:58:00;;;;;;;14.3;8.7;;;;;;;11.5;100.0;101820;;;;
2022/05/05 05:59:01;;;;;;;15.6;8.9;;;;;;;11.5;100.0;101820;;;;
2022/05/05 06:00:06;;;;;;;15.6;8.9;;;;;;;11.5;100.0;101820;;;;
2022/05/05 06:01:00;;;;;;;15.6;8.9;;;;;;;11.5;100.0;101820;;;;
2022/05/05 06:04:00;;;;;;;15.6;8.9;;;;;;;11.7;100.0;101810;;;;
2022/05/05 06:05:00;;;;;;;15.6;8.9;;;;;;;11.7;100.0;101810;;;;
2022/05/05 06:06:00;;;;;;;15.6;8.9;;;;;;;11.8;100.0;101820;;;;
2022/05/05 06:07:00;;;;;;;15.6;8.9;;;;;;;11.8;100.0;101820;;;;
2022/05/05 06:08:00;;;;;;;15.6;8.9;;;;;;;11.8;100.0;101820;;;;
2022/05/05 06:09:00;;;;;;;15.6;8.9;;;;;;;11.8;100.0;101820;;;;
2022/05/05 06:10:00;;;;;;;15.6;8.9;;;;;;;11.9;100.0;101820;;;;
2022/05/05 06:11:00;;;;;;;15.6;8.9;;;;;;;11.9;100.0;101820;;;;
2022/05/05 06:12:00;;;;;;;15.6;8.9;;;;;;;11.9;100.0;101830;;;;
2022/05/05 06:13:00;;;;;;;15.6;8.9;;;;;;;11.9;100.0;101830;;;;
2022/05/05 06:14:04;;;;;;;15.6;8.9;;;;;;;12.0;100.0;101830;;;;
2022/05/05 06:15:00;;;;;;;15.6;8.9;;;;;;;12.0;100.0;101830;;;;
2022/05/05 06:16:00;;;;;;;15.6;8.9;;;;;;;12.1;100.0;101830;;;;
2022/05/05 06:17:00;;;;;;;15.6;8.9;;;;;;;12.1;100.0;101830;;;;
2022/05/05 06:18:00;;;;;;;15.6;8.9;;;;;;;12.1;100.0;101830;;;;
2022/05/05 06:19:00;;;;;;;11.5;7.9;;;;;;;12.1;100.0;101830;;;;
2022/05/05 06:20:00;;;;;;;11.5;7.9;;;;;;;12.3;100.0;101830;;;;
2022/05/05 06:21:00;;;;;;;11.5;7.9;;;;;;;12.3;100.0;101830;;;;
2022/05/05 06:22:00;;;;;;;11.5;7.9;;;;;;;12.4;100.0;101830;;;;
2022/05/05 06:23:00;;;;;;;11.5;7.9;;;;;;;12.4;100.0;101830;;;;
2022/05/05 06:24:00;;;;;;;11.5;7.9;;;;;;;12.5;100.0;101820;;;;
2022/05/05 06:25:00;;;;;;;11.5;7.9;;;;;;;12.5;100.0;101820;;;;
2022/05/05 06:26:00;;;;;;;11.5;7.9;;;;;;;12.5;100.0;101820;;;;
2022/05/05 06:27:00;;;;;;;11.5;7.9;;;;;;;12.5;100.0;101820;;;;
2022/05/05 06:28:00;;;;;;;11.5;7.9;;;;;;;12.7;100.0;101820;;;;
2022/05/05 06:29:00;;;;;;;11.5;7.9;;;;;;;12.7;100.0;101820;;;;
2022/05/05 06:30:00;;;;;;;11.5;7.9;;;;;;;12.7;100.0;101830;;;;
2022/05/05 06:31:00;;;;;;;11.5;7.9;;;;;;;12.7;100.0;101830;;;;
2022/05/05 06:32:00;;;;;;;11.5;7.9;;;;;;;12.8;100.0;101830;;;;
2022/05/05 06:33:00;;;;;;;11.5;7.9;;;;;;;12.8;100.0;101830;;;;
2022/05/05 06:34:00;;;;;;;11.5;7.9;;;;;;;12.8;100.0;101830;;;;